Balneario Claromeco, Argentina
Current Conditions -  °F | °C
As of 6:00 PM on Sunday 23 Nov 2014 (Local Time) from SAZM Reporting Station
Clear Clear  
Wind Chill: 79°   Ceiling: Unl
Heat Index: 79°   Visibility: 6mi
Dew Point: 55°   Wind: 17mph
Humidity: 44%   Direction: 320°NW
Pressure: 29.65"   Gusts: NA
Location:  38.85°S, 60.08°W
Report Text: SAZM 232100Z 32015KT CAVOK 26/13 Q1004
Loading
Personal Weather Stations






























Interactive Weather Map New forecast layout! Learn more

10-Day Weather Forecast

Advertisements
Track Severe Weather on mobile